createdAt,value
2023-02-14T00:27:27.694Z,0.70
2023-02-14T00:55:13.868Z,0.50
2023-02-14T00:58:45.821Z,0.40
2023-02-14T01:07:16.198Z,0.50
2023-02-14T01:38:24.976Z,0.30
2023-02-14T02:17:51.856Z,0.20
2023-02-14T02:25:22.552Z,0.20
2023-02-14T02:28:53.895Z,0.20
2023-02-14T02:37:47.898Z,0.20
2023-02-14T03:03:26.938Z,0.10
2023-02-14T03:05:53.710Z,0.20
2023-02-14T03:08:20.346Z,0.10
2023-02-14T03:10:47.076Z,0.10
2023-02-14T03:13:17.285Z,0.10
2023-02-14T03:16:20.411Z,0.00
2023-02-14T03:20:01.060Z,0.00
2023-02-14T03:22:46.091Z,0.00
2023-02-14T03:25:28.327Z,0.00
2023-02-14T03:28:04.408Z,0.00
2023-02-14T03:30:42.952Z,0.00
2023-02-14T03:33:11.522Z,-0.10
2023-02-14T03:36:05.576Z,0.00
2023-02-14T03:38:50.546Z,0.00
2023-02-14T03:41:22.422Z,0.00
2023-02-14T03:43:53.009Z,0.00
2023-02-14T03:46:34.329Z,0.00
2023-02-14T03:49:05.306Z,0.00
2023-02-14T03:51:34.426Z,0.00
2023-02-14T03:54:05.538Z,0.00
2023-02-14T03:56:45.221Z,0.00
2023-02-14T03:59:30.319Z,0.00
2023-02-14T04:02:21.607Z,0.00
2023-02-14T04:04:51.126Z,0.00
2023-02-14T04:07:23.630Z,0.00
2023-02-14T04:09:50.697Z,0.00
2023-02-14T04:12:26.553Z,-0.10
2023-02-14T04:14:59.148Z,-0.10
2023-02-14T04:17:44.388Z,-0.20
2023-02-14T04:20:11.189Z,-0.20
2023-02-14T04:22:37.873Z,-0.20
2023-02-14T04:25:04.847Z,-0.20
2023-02-14T04:27:31.542Z,-0.10
2023-02-14T04:29:58.301Z,-0.20
2023-02-14T04:32:25.214Z,-0.20
2023-02-14T04:34:51.884Z,-0.20
2023-02-14T04:37:19.818Z,-0.20
2023-02-14T04:39:46.966Z,-0.30
2023-02-14T04:42:14.256Z,-0.30
2023-02-14T04:44:41.168Z,-0.30
2023-02-14T04:47:08.472Z,-0.30
2023-02-14T04:49:36.315Z,-0.20
2023-02-14T04:52:04.250Z,-0.20
2023-02-14T04:54:30.917Z,-0.20
2023-02-14T04:56:57.905Z,-0.30
2023-02-14T04:59:25.221Z,-0.30
2023-02-14T05:01:52.868Z,-0.30
2023-02-14T05:04:19.722Z,-0.30
2023-02-14T05:06:46.809Z,-0.30
2023-02-14T05:09:13.565Z,-0.30
2023-02-14T05:11:40.332Z,-0.30
2023-02-14T05:14:07.367Z,-0.30
2023-02-14T05:16:34.174Z,-0.30
2023-02-14T05:19:00.987Z,-0.30
2023-02-14T05:21:28.542Z,-0.30
2023-02-14T05:23:55.217Z,-0.30
2023-02-14T05:26:22.046Z,-0.30
2023-02-14T05:28:48.683Z,-0.30
2023-02-14T05:31:15.495Z,-0.30
2023-02-14T05:33:42.270Z,-0.30
2023-02-14T05:36:10.904Z,-0.30
2023-02-14T05:38:37.547Z,-0.30
2023-02-14T05:41:04.513Z,-0.30
2023-02-14T05:43:31.390Z,-0.30
2023-02-14T05:45:58.409Z,-0.20
2023-02-14T05:48:25.986Z,-0.20
2023-02-14T05:50:52.720Z,-0.20
2023-02-14T05:53:19.573Z,-0.30
2023-02-14T05:55:46.662Z,-0.30
2023-02-14T05:58:13.418Z,-0.30
2023-02-14T06:00:41.313Z,-0.30
2023-02-14T06:03:08.528Z,-0.30
2023-02-14T06:05:35.543Z,-0.30
2023-02-14T06:08:02.333Z,-0.30
2023-02-14T06:10:29.598Z,-0.30
2023-02-14T06:12:56.450Z,-0.30
2023-02-14T06:15:23.592Z,-0.30
2023-02-14T06:17:57.560Z,-0.30
2023-02-14T06:20:25.165Z,-0.30
2023-02-14T06:22:53.424Z,-0.30
2023-02-14T06:25:21.467Z,-0.30
2023-02-14T06:27:49.452Z,-0.30
2023-02-14T06:30:18.332Z,-0.30
2023-02-14T06:32:45.178Z,-0.30
2023-02-14T06:35:13.711Z,-0.30
2023-02-14T06:37:42.039Z,-0.20
2023-02-14T06:40:10.186Z,-0.20
2023-02-14T06:42:37.002Z,-0.20
2023-02-14T06:45:05.272Z,-0.30
2023-02-14T06:47:34.577Z,-0.30
2023-02-14T06:50:01.688Z,-0.20
2023-02-14T06:52:28.411Z,-0.20
2023-02-14T06:54:55.110Z,-0.20
2023-02-14T06:57:21.810Z,-0.20
2023-02-14T06:59:48.481Z,-0.30
2023-02-14T07:02:15.248Z,-0.30
2023-02-14T07:04:41.901Z,-0.30
2023-02-14T07:07:08.633Z,-0.30
2023-02-14T07:09:35.299Z,-0.30
2023-02-14T07:12:01.975Z,-0.30
2023-02-14T07:14:28.758Z,-0.30
2023-02-14T07:16:55.572Z,-0.30
2023-02-14T07:19:22.373Z,-0.30
2023-02-14T07:21:49.059Z,-0.30
2023-02-14T07:24:15.777Z,-0.30
2023-02-14T07:26:42.568Z,-0.30
2023-02-14T07:29:09.264Z,-0.30
2023-02-14T07:31:36.085Z,-0.30
2023-02-14T07:34:02.873Z,-0.20
2023-02-14T07:36:29.599Z,-0.20
2023-02-14T07:38:56.974Z,-0.20
2023-02-14T07:41:24.140Z,-0.10
2023-02-14T07:43:50.870Z,-0.10
2023-02-14T07:46:18.276Z,0.00
2023-02-14T07:48:45.121Z,0.00
2023-02-14T07:51:11.853Z,0.10
2023-02-14T07:53:38.508Z,0.10
2023-02-14T07:56:05.395Z,0.20
2023-02-14T07:58:32.070Z,0.20
2023-02-14T08:00:59.028Z,0.30
2023-02-14T08:03:26.116Z,0.40
2023-02-14T08:05:58.625Z,0.50
2023-02-14T08:08:30.627Z,0.60
2023-02-14T08:10:58.188Z,0.70
2023-02-14T08:13:25.156Z,0.80
2023-02-14T08:16:11.646Z,0.90
2023-02-14T08:18:40.339Z,1.00
2023-02-14T08:21:09.552Z,1.10
2023-02-14T08:23:37.011Z,1.30
2023-02-14T08:26:03.855Z,1.50
2023-02-14T08:28:32.273Z,1.60
2023-02-14T08:30:59.351Z,1.70
2023-02-14T08:33:26.322Z,1.80
2023-02-14T08:35:53.119Z,2.00
2023-02-14T08:38:20.367Z,2.10
2023-02-14T08:40:47.436Z,2.20
2023-02-14T08:43:15.045Z,2.30
2023-02-14T08:45:42.458Z,2.40
2023-02-14T08:48:11.752Z,2.50
2023-02-14T08:50:39.392Z,2.60
2023-02-14T08:53:11.480Z,2.70
2023-02-14T08:55:39.507Z,2.80
2023-02-14T08:58:07.542Z,2.90
2023-02-14T09:00:34.446Z,3.00
2023-02-14T09:03:01.267Z,3.10
2023-02-14T09:05:28.214Z,3.20
2023-02-14T09:07:57.810Z,3.30
2023-02-14T09:10:25.365Z,3.40
2023-02-14T09:12:52.673Z,3.50
2023-02-14T09:15:19.584Z,3.50
2023-02-14T09:17:46.784Z,3.60
2023-02-14T09:20:15.415Z,3.70
2023-02-14T09:22:42.109Z,3.80
2023-02-14T09:25:09.200Z,3.90
2023-02-14T09:27:36.070Z,4.00
2023-02-14T09:30:03.079Z,4.10
2023-02-14T09:32:29.875Z,4.20
2023-02-14T09:35:15.273Z,4.30
2023-02-14T09:38:00.632Z,4.50
2023-02-14T09:40:27.448Z,4.70
2023-02-14T09:43:12.058Z,4.90
2023-02-14T09:45:40.315Z,5.00
2023-02-14T09:48:29.676Z,5.20
2023-02-14T09:51:02.449Z,5.40
2023-02-14T09:53:51.056Z,5.50
2023-02-14T09:56:21.001Z,5.60
2023-02-14T09:59:04.936Z,5.70
2023-02-14T10:01:45.636Z,5.70
2023-02-14T10:04:52.245Z,5.90
2023-02-14T10:07:44.241Z,5.90
2023-02-14T10:10:19.633Z,6.00
2023-02-14T10:12:59.565Z,6.20
2023-02-14T10:15:30.901Z,6.30
2023-02-14T10:18:03.897Z,6.40
2023-02-14T10:20:32.382Z,6.50
2023-02-14T10:23:22.230Z,6.70
2023-02-14T10:26:05.399Z,6.80
2023-02-14T10:28:37.450Z,7.00
2023-02-14T10:31:26.918Z,7.10
2023-02-14T10:34:12.295Z,7.20
2023-02-14T10:37:11.529Z,7.40
2023-02-14T10:40:02.954Z,7.60
2023-02-14T10:42:45.552Z,7.80
2023-02-14T10:45:26.511Z,8.00
2023-02-14T10:48:20.994Z,8.10
2023-02-14T10:51:05.384Z,8.40
2023-02-14T10:53:57.994Z,8.70
2023-02-14T10:56:34.258Z,9.00
2023-02-14T10:59:16.917Z,9.40
2023-02-14T11:01:44.307Z,9.80
2023-02-14T11:04:13.155Z,10.20
2023-02-14T11:06:39.937Z,10.40
2023-02-14T11:09:06.668Z,10.60
2023-02-14T11:11:40.792Z,10.90
2023-02-14T11:14:26.504Z,11.30
2023-02-14T11:16:54.686Z,11.60
2023-02-14T11:19:39.780Z,11.70
2023-02-14T11:22:10.088Z,12.00
2023-02-14T11:24:41.452Z,12.20
2023-02-14T11:27:17.949Z,12.50
2023-02-14T11:29:48.958Z,12.90
2023-02-14T11:32:24.340Z,13.10
2023-02-14T11:35:18.381Z,13.10
2023-02-14T11:37:51.198Z,13.30
2023-02-14T11:40:54.638Z,13.50
2023-02-14T11:43:36.503Z,13.80
2023-02-14T11:46:22.791Z,13.80
2023-02-14T11:49:23.593Z,13.80
2023-02-14T11:51:50.737Z,13.50
2023-02-14T11:54:39.263Z,13.40
2023-02-14T11:57:22.063Z,13.30
2023-02-14T11:59:53.390Z,13.20
2023-02-14T12:02:36.506Z,13.00
2023-02-14T12:05:05.356Z,12.90
2023-02-14T12:07:35.823Z,12.80
2023-02-14T12:10:17.545Z,12.70
2023-02-14T12:13:08.629Z,12.60
2023-02-14T12:15:38.665Z,12.60
2023-02-14T12:18:42.571Z,12.50
2023-02-14T12:21:30.391Z,12.50
2023-02-14T12:24:41.462Z,12.50
2023-02-14T12:27:20.996Z,12.50
2023-02-14T12:29:53.778Z,12.50
2023-02-14T12:32:28.055Z,12.50
2023-02-14T12:35:02.483Z,12.50
2023-02-14T12:38:08.532Z,12.60
2023-02-14T12:41:05.527Z,12.60
2023-02-14T12:43:55.582Z,12.60
2023-02-14T12:49:27.347Z,12.60
2023-02-14T12:51:59.600Z,12.70
2023-02-14T12:55:11.133Z,12.70
2023-02-14T12:57:56.841Z,12.70
2023-02-14T13:00:52.243Z,12.70
2023-02-14T13:03:44.267Z,12.70
2023-02-14T13:06:29.632Z,12.80
2023-02-14T13:09:14.435Z,12.80
2023-02-14T13:12:21.389Z,12.80
2023-02-14T13:15:19.064Z,12.90
2023-02-14T13:17:52.976Z,12.80
2023-02-14T13:20:50.661Z,12.80
2023-02-14T13:23:25.591Z,12.90
2023-02-14T13:25:59.372Z,12.90
2023-02-14T13:28:27.980Z,12.90
2023-02-14T13:30:57.786Z,12.90
2023-02-14T13:33:27.209Z,13.00
2023-02-14T13:36:01.628Z,12.90
2023-02-14T13:38:31.662Z,13.00
2023-02-14T13:41:01.253Z,13.00
2023-02-14T13:43:51.192Z,13.10
2023-02-14T13:46:21.184Z,13.10
2023-02-14T13:49:03.544Z,13.10
2023-02-14T13:51:50.329Z,13.10
2023-02-14T13:54:41.807Z,13.10
2023-02-14T13:57:33.976Z,13.00
2023-02-14T14:00:23.747Z,13.00
2023-02-14T14:02:55.859Z,12.90
2023-02-14T14:05:32.484Z,12.80
2023-02-14T14:08:21.019Z,12.60
2023-02-14T14:10:51.577Z,12.40
2023-02-14T14:13:40.275Z,12.10
2023-02-14T14:16:23.265Z,11.90
2023-02-14T14:18:51.554Z,11.60
2023-02-14T14:21:28.864Z,11.40
2023-02-14T14:24:21.757Z,11.20
2023-02-14T14:26:57.708Z,10.90
2023-02-14T14:29:30.071Z,10.70
2023-02-14T14:31:57.431Z,10.40
2023-02-14T14:34:27.714Z,10.20
2023-02-14T14:37:23.940Z,9.90
2023-02-14T14:40:00.245Z,9.70
2023-02-14T14:42:30.816Z,9.50
2023-02-14T14:45:23.027Z,9.30
2023-02-14T14:47:54.197Z,9.10
2023-02-14T14:50:30.819Z,8.80
2023-02-14T14:53:06.445Z,8.70
2023-02-14T14:55:39.402Z,8.70
2023-02-14T14:58:09.013Z,8.60
2023-02-14T15:00:38.165Z,8.40
2023-02-14T15:03:15.474Z,8.20
2023-02-14T15:05:48.044Z,8.10
2023-02-14T15:08:14.695Z,8.10
2023-02-14T15:10:42.595Z,7.90
2023-02-14T15:13:32.486Z,7.80
2023-02-14T15:16:01.346Z,7.70
2023-02-14T15:18:29.699Z,7.60
2023-02-14T15:20:56.515Z,7.50
2023-02-14T15:23:24.808Z,7.40
2023-02-14T15:25:52.482Z,7.30
2023-02-14T15:28:31.827Z,7.30
2023-02-14T15:31:02.940Z,7.20
2023-02-14T15:33:31.779Z,7.20
2023-02-14T15:36:06.184Z,7.10
2023-02-14T15:38:36.305Z,7.10
2023-02-14T15:41:03.364Z,7.00
2023-02-14T15:43:32.622Z,7.00
2023-02-14T15:46:28.336Z,6.90
2023-02-14T15:48:58.359Z,6.90
2023-02-14T15:51:28.240Z,6.80
2023-02-14T15:53:59.599Z,6.80
2023-02-14T15:56:33.498Z,6.80
2023-02-14T15:59:00.355Z,6.80
2023-02-14T16:01:30.049Z,6.80
2023-02-14T16:04:00.330Z,6.70
2023-02-14T16:06:48.081Z,6.70
2023-02-14T16:09:29.546Z,6.70
2023-02-14T16:11:56.745Z,6.60
2023-02-14T16:14:36.934Z,6.50
2023-02-14T16:17:14.486Z,6.50
2023-02-14T16:19:45.938Z,6.40
2023-02-14T16:22:25.349Z,6.50
2023-02-14T16:24:52.091Z,6.40
2023-02-14T16:27:18.781Z,6.30
2023-02-14T16:29:45.452Z,6.30
2023-02-14T16:32:18.348Z,6.20
2023-02-14T16:34:47.360Z,6.10
2023-02-14T16:37:33.884Z,6.10
2023-02-14T16:40:01.898Z,6.10
2023-02-14T16:42:28.691Z,6.10
2023-02-14T16:44:55.452Z,6.10
2023-02-14T16:47:22.419Z,6.10
2023-02-14T16:49:50.617Z,6.10
2023-02-14T16:52:23.402Z,6.00
2023-02-14T16:54:50.290Z,6.00
2023-02-14T16:57:46.373Z,5.90
2023-02-14T17:00:13.945Z,5.80
2023-02-14T17:02:44.142Z,5.80
2023-02-14T17:05:11.567Z,5.70
2023-02-14T17:07:42.134Z,5.70
2023-02-14T17:10:16.797Z,5.70
2023-02-14T17:12:47.307Z,5.60
2023-02-14T17:15:18.022Z,5.50
2023-02-14T17:17:47.294Z,5.40
2023-02-14T17:20:15.269Z,5.30
2023-02-14T17:22:45.206Z,5.30
2023-02-14T17:25:12.040Z,5.30
2023-02-14T17:27:43.799Z,5.30
2023-02-14T17:30:12.461Z,5.20
2023-02-14T17:32:39.138Z,5.20
2023-02-14T17:35:08.745Z,5.10
2023-02-14T17:37:36.800Z,5.10
2023-02-14T17:40:05.914Z,5.00
2023-02-14T17:42:33.460Z,5.00
2023-02-14T17:45:00.432Z,5.00
2023-02-14T17:47:28.453Z,4.90
2023-02-14T17:49:55.161Z,4.90
2023-02-14T17:52:22.090Z,4.70
2023-02-14T17:54:48.818Z,4.70
2023-02-14T17:57:15.738Z,4.70
2023-02-14T17:59:42.581Z,4.70
2023-02-14T18:02:09.614Z,4.60
2023-02-14T18:04:37.220Z,4.50
2023-02-14T18:07:05.248Z,4.50
2023-02-14T18:09:32.264Z,4.50
2023-02-14T18:11:59.038Z,4.50
2023-02-14T18:14:26.112Z,4.50
2023-02-14T18:16:52.873Z,4.40
2023-02-14T18:19:19.660Z,4.50
2023-02-14T18:21:46.512Z,4.50
2023-02-14T18:24:15.149Z,4.40
2023-02-14T18:26:43.386Z,4.30
2023-02-14T18:29:10.854Z,4.30
2023-02-14T18:31:40.095Z,4.30
2023-02-14T18:34:07.787Z,4.30
2023-02-14T18:36:39.371Z,4.20
2023-02-14T18:39:06.908Z,4.20
2023-02-14T18:41:34.115Z,4.20
2023-02-14T18:44:01.609Z,4.20
2023-02-14T18:46:31.292Z,4.20
2023-02-14T18:48:58.132Z,4.10
2023-02-14T18:51:27.525Z,4.10
2023-02-14T18:53:56.329Z,4.00
2023-02-14T18:56:30.127Z,3.90
2023-02-14T18:58:59.596Z,3.80
2023-02-14T19:01:36.720Z,3.80
2023-02-14T19:04:06.290Z,3.80
2023-02-14T19:06:34.087Z,3.70
2023-02-14T19:09:02.375Z,3.70
2023-02-14T19:11:34.148Z,3.60
2023-02-14T19:14:02.820Z,3.60
2023-02-14T19:16:32.036Z,3.60
2023-02-14T19:18:59.381Z,3.60
2023-02-14T19:21:30.651Z,3.50
2023-02-14T19:23:57.982Z,3.50
2023-02-14T19:26:27.001Z,3.40
2023-02-14T19:29:04.489Z,3.40
2023-02-14T19:31:36.153Z,3.30
2023-02-14T19:34:04.010Z,3.30
2023-02-14T19:36:30.906Z,3.30
2023-02-14T19:38:57.581Z,3.20
2023-02-14T19:41:31.063Z,3.20
2023-02-14T19:43:58.874Z,3.20
2023-02-14T19:46:26.276Z,3.20
2023-02-14T19:48:52.936Z,3.10
2023-02-14T19:51:29.223Z,3.10
2023-02-14T19:53:57.186Z,3.00
2023-02-14T19:56:26.492Z,2.80
2023-02-14T19:58:54.038Z,2.70
2023-02-14T20:01:28.983Z,2.70
2023-02-14T20:03:56.294Z,2.70
2023-02-14T20:06:24.053Z,2.60
2023-02-14T20:08:51.124Z,2.60
2023-02-14T20:11:32.286Z,2.50
2023-02-14T20:14:00.511Z,2.50
2023-02-14T20:16:29.831Z,2.50
2023-02-14T20:18:57.595Z,2.50
2023-02-14T20:21:28.113Z,2.60
2023-02-14T20:23:58.503Z,2.50
2023-02-14T20:26:25.216Z,2.50
2023-02-14T20:28:53.122Z,2.40
2023-02-14T20:31:20.051Z,2.40
2023-02-14T20:33:47.952Z,2.30
2023-02-14T20:36:14.681Z,2.20
2023-02-14T20:38:41.338Z,2.20
2023-02-14T20:41:10.639Z,2.20
2023-02-14T20:43:38.117Z,2.20
2023-02-14T20:46:06.571Z,2.10
2023-02-14T20:48:33.933Z,2.00
2023-02-14T20:51:14.921Z,2.00
2023-02-14T20:53:42.837Z,2.00
2023-02-14T20:56:12.193Z,2.00
2023-02-14T20:58:39.994Z,2.00
2023-02-14T21:01:13.300Z,2.00
2023-02-14T21:03:41.209Z,2.00
2023-02-14T21:06:11.550Z,2.00
2023-02-14T21:08:38.919Z,1.90
2023-02-14T21:11:07.045Z,1.90
2023-02-14T21:13:33.945Z,1.90
2023-02-14T21:16:05.766Z,1.90
2023-02-14T21:18:34.308Z,1.80
2023-02-14T21:21:35.940Z,1.80
2023-02-14T21:24:09.094Z,1.80
2023-02-14T21:26:36.130Z,1.70
2023-02-14T21:29:03.442Z,1.70
2023-02-14T21:31:30.721Z,1.70
2023-02-14T21:33:59.712Z,1.60
2023-02-14T21:36:29.479Z,1.60
2023-02-14T21:38:58.273Z,1.60
2023-02-14T21:41:28.276Z,1.60
2023-02-14T21:43:58.659Z,1.60
2023-02-14T21:46:30.478Z,1.50
2023-02-14T21:49:18.013Z,1.50
2023-02-14T21:51:45.640Z,1.50
2023-02-14T21:54:13.729Z,1.50
2023-02-14T21:56:43.804Z,1.50
2023-02-14T21:59:11.356Z,1.50
2023-02-14T22:01:40.290Z,1.40
2023-02-14T22:04:09.010Z,1.30
2023-02-14T22:06:37.578Z,1.30
2023-02-14T22:09:05.572Z,1.30
2023-02-14T22:11:32.560Z,1.20
2023-02-14T22:13:59.663Z,1.20
2023-02-14T22:16:26.433Z,1.20
2023-02-14T22:18:53.216Z,1.20
2023-02-14T22:21:23.423Z,1.20
2023-02-14T22:23:50.774Z,1.20
2023-02-14T22:26:26.357Z,1.20
2023-02-14T22:29:00.612Z,1.20
2023-02-14T22:31:31.973Z,1.10
2023-02-14T22:33:58.728Z,1.00
2023-02-14T22:36:25.870Z,1.00
2023-02-14T22:38:52.559Z,1.00
2023-02-14T22:41:21.708Z,1.00
2023-02-14T22:43:48.582Z,1.00
2023-02-14T22:46:20.741Z,1.00
2023-02-14T22:48:48.736Z,0.90
2023-02-14T22:51:30.599Z,0.90
2023-02-14T22:54:00.397Z,0.90
2023-02-14T22:56:33.064Z,0.90
2023-02-14T22:59:24.186Z,0.90
2023-02-14T23:01:52.858Z,0.90
2023-02-14T23:04:22.086Z,1.00
2023-02-14T23:06:49.213Z,0.90
2023-02-14T23:09:15.956Z,0.90
2023-02-14T23:11:44.778Z,0.90
2023-02-14T23:14:32.582Z,0.80
2023-02-14T23:17:25.458Z,0.80
2023-02-14T23:20:11.071Z,0.90
2023-02-14T23:22:39.586Z,0.80
2023-02-14T23:25:08.649Z,0.80
2023-02-14T23:27:39.132Z,0.80
2023-02-14T23:30:07.496Z,0.90
2023-02-14T23:32:34.364Z,0.90
2023-02-14T23:35:01.097Z,0.90
2023-02-14T23:37:28.074Z,1.00
2023-02-14T23:39:54.745Z,1.00
2023-02-14T23:42:21.486Z,1.00
2023-02-14T23:44:49.066Z,1.00
2023-02-14T23:47:16.154Z,1.00
2023-02-14T23:49:43.735Z,1.00
2023-02-14T23:52:12.538Z,0.90
2023-02-14T23:54:39.804Z,0.90
2023-02-14T23:57:07.380Z,0.80
2023-02-14T23:59:34.333Z,0.70
